sensor_id;sensor_type;location;lat;lon;timestamp;pressure;altitude;pressure_sealevel;temperature
76901;BMP280;65859;43.020;25.096;2024-03-23T00:56:06;99478.31;;;3.42
76901;BMP280;65859;43.020;25.096;2024-03-23T00:58:33;99469.66;;;3.11
76901;BMP280;65859;43.020;25.096;2024-03-23T01:00:59;99470.97;;;3.08
76901;BMP280;65859;43.020;25.096;2024-03-23T01:03:25;99468.63;;;3.12
76901;BMP280;65859;43.020;25.096;2024-03-23T01:05:51;99466.22;;;3.05
76901;BMP280;65859;43.020;25.096;2024-03-23T01:08:20;99464.34;;;2.70
76901;BMP280;65859;43.020;25.096;2024-03-23T01:11:00;99464.41;;;3.41
76901;BMP280;65859;43.020;25.096;2024-03-23T01:13:27;99468.63;;;3.12
76901;BMP280;65859;43.020;25.096;2024-03-23T01:15:55;99462.84;;;3.00
76901;BMP280;65859;43.020;25.096;2024-03-23T01:18:22;99460.69;;;2.71
76901;BMP280;65859;43.020;25.096;2024-03-23T01:20:49;99458.84;;;2.71
76901;BMP280;65859;43.020;25.096;2024-03-23T01:23:16;99456.44;;;2.44
76901;BMP280;65859;43.020;25.096;2024-03-23T01:25:42;99456.00;;;2.78
76901;BMP280;65859;43.020;25.096;2024-03-23T01:28:08;99453.59;;;2.56
76901;BMP280;65859;43.020;25.096;2024-03-23T01:30:35;99458.13;;;2.91
76901;BMP280;65859;43.020;25.096;2024-03-23T01:33:02;99454.97;;;3.05
76901;BMP280;65859;43.020;25.096;2024-03-23T01:35:31;99456.47;;;2.55
76901;BMP280;65859;43.020;25.096;2024-03-23T01:37:57;99453.16;;;2.07
76901;BMP280;65859;43.020;25.096;2024-03-23T01:40:24;99460.53;;;2.20
76901;BMP280;65859;43.020;25.096;2024-03-23T01:42:58;99456.47;;;2.55
76901;BMP280;65859;43.020;25.096;2024-03-23T01:45:24;99459.03;;;2.39
76901;BMP280;65859;43.020;25.096;2024-03-23T01:47:51;99453.81;;;2.44
76901;BMP280;65859;43.020;25.096;2024-03-23T01:50:19;99452.66;;;2.15
76901;BMP280;65859;43.020;25.096;2024-03-23T01:52:47;99455.47;;;2.03
76901;BMP280;65859;43.020;25.096;2024-03-23T01:55:13;99457.19;;;1.77
76901;BMP280;65859;43.020;25.096;2024-03-23T01:57:39;99455.56;;;1.71
76901;BMP280;65859;43.020;25.096;2024-03-23T02:00:06;99455.06;;;2.27
76901;BMP280;65859;43.020;25.096;2024-03-23T02:02:32;99453.81;;;2.50
76901;BMP280;65859;43.020;25.096;2024-03-23T02:04:59;99459.63;;;2.67
76901;BMP280;65859;43.020;25.096;2024-03-23T02:07:25;99451.88;;;1.67
76901;BMP280;65859;43.020;25.096;2024-03-23T02:09:52;99455.75;;;2.07
76901;BMP280;65859;43.020;25.096;2024-03-23T02:12:18;99454.38;;;1.94
76901;BMP280;65859;43.020;25.096;2024-03-23T02:14:46;99448.16;;;2.05
76901;BMP280;65859;43.020;25.096;2024-03-23T02:17:13;99450.38;;;2.34
76901;BMP280;65859;43.020;25.096;2024-03-23T02:19:39;99455.22;;;2.10
76901;BMP280;65859;43.020;25.096;2024-03-23T02:22:05;99448.13;;;2.58
76901;BMP280;65859;43.020;25.096;2024-03-23T02:24:32;99449.06;;;1.74
76901;BMP280;65859;43.020;25.096;2024-03-23T02:27:00;99451.38;;;2.23
76901;BMP280;65859;43.020;25.096;2024-03-23T02:29:26;99449.84;;;1.79
76901;BMP280;65859;43.020;25.096;2024-03-23T02:31:52;99445.72;;;1.93
76901;BMP280;65859;43.020;25.096;2024-03-23T02:34:18;99449.38;;;2.50
76901;BMP280;65859;43.020;25.096;2024-03-23T02:36:44;99444.41;;;2.43
76901;BMP280;65859;43.020;25.096;2024-03-23T02:39:11;99449.00;;;1.68
76901;BMP280;65859;43.020;25.096;2024-03-23T02:41:37;99453.59;;;1.93
76901;BMP280;65859;43.020;25.096;2024-03-23T02:44:03;99450.97;;;1.93
76901;BMP280;65859;43.020;25.096;2024-03-23T02:46:31;99452.50;;;1.89
76901;BMP280;65859;43.020;25.096;2024-03-23T02:48:57;99445.13;;;2.34
76901;BMP280;65859;43.020;25.096;2024-03-23T02:51:23;99450.16;;;1.51
76901;BMP280;65859;43.020;25.096;2024-03-23T02:53:49;99449.38;;;1.50
76901;BMP280;65859;43.020;25.096;2024-03-23T02:56:16;99449.84;;;1.42
76901;BMP280;65859;43.020;25.096;2024-03-23T02:58:43;99450.72;;;1.53
76901;BMP280;65859;43.020;25.096;2024-03-23T03:01:09;99449.94;;;1.52
76901;BMP280;65859;43.020;25.096;2024-03-23T03:03:35;99440.44;;;1.41
76901;BMP280;65859;43.020;25.096;2024-03-23T03:06:02;99445.81;;;0.97
76901;BMP280;65859;43.020;25.096;2024-03-23T03:08:28;99452.31;;;0.94
76901;BMP280;65859;43.020;25.096;2024-03-23T03:10:54;99451.94;;;1.08
76901;BMP280;65859;43.020;25.096;2024-03-23T03:13:21;99446.03;;;1.97
76901;BMP280;65859;43.020;25.096;2024-03-23T03:15:47;99448.91;;;2.79
76901;BMP280;65859;43.020;25.096;2024-03-23T03:18:14;99442.56;;;2.49
76901;BMP280;65859;43.020;25.096;2024-03-23T03:20:41;99452.47;;;2.27
76901;BMP280;65859;43.020;25.096;2024-03-23T03:23:07;99451.25;;;2.65
76901;BMP280;65859;43.020;25.096;2024-03-23T03:25:34;99453.31;;;2.53
76901;BMP280;65859;43.020;25.096;2024-03-23T03:28:00;99449.09;;;1.84
76901;BMP280;65859;43.020;25.096;2024-03-23T03:30:27;99444.41;;;1.86
76901;BMP280;65859;43.020;25.096;2024-03-23T03:32:54;99445.19;;;1.86
76901;BMP280;65859;43.020;25.096;2024-03-23T03:35:21;99449.03;;;2.21
76901;BMP280;65859;43.020;25.096;2024-03-23T03:37:48;99447.03;;;2.49
76901;BMP280;65859;43.020;25.096;2024-03-23T03:40:14;99450.25;;;2.96
76901;BMP280;65859;43.020;25.096;2024-03-23T03:42:43;99450.00;;;3.03
76901;BMP280;65859;43.020;25.096;2024-03-23T03:45:10;99451.81;;;2.77
76901;BMP280;65859;43.020;25.096;2024-03-23T03:47:36;99450.19;;;1.93
76901;BMP280;65859;43.020;25.096;2024-03-23T03:50:04;99457.75;;;1.94
76901;BMP280;65859;43.020;25.096;2024-03-23T03:52:30;99454.69;;;2.03
76901;BMP280;65859;43.020;25.096;2024-03-23T03:55:02;99459.75;;;2.19
76901;BMP280;65859;43.020;25.096;2024-03-23T03:57:29;99455.28;;;1.73
76901;BMP280;65859;43.020;25.096;2024-03-23T03:59:55;99454.94;;;0.94
76901;BMP280;65859;43.020;25.096;2024-03-23T04:02:21;99459.50;;;0.82
76901;BMP280;65859;43.020;25.096;2024-03-23T04:04:47;99457.75;;;0.66
76901;BMP280;65859;43.020;25.096;2024-03-23T04:07:14;99469.19;;;1.09
76901;BMP280;65859;43.020;25.096;2024-03-23T04:09:40;99456.41;;;0.85
76901;BMP280;65859;43.020;25.096;2024-03-23T04:12:06;99458.81;;;0.92
76901;BMP280;65859;43.020;25.096;2024-03-23T04:14:32;99460.75;;;0.75
76901;BMP280;65859;43.020;25.096;2024-03-23T04:16:59;99454.50;;;0.54
76901;BMP280;65859;43.020;25.096;2024-03-23T04:19:25;99459.09;;;0.68
76901;BMP280;65859;43.020;25.096;2024-03-23T04:21:53;99458.91;;;0.26
76901;BMP280;65859;43.020;25.096;2024-03-23T04:24:19;99454.94;;;0.94
76901;BMP280;65859;43.020;25.096;2024-03-23T04:26:47;99462.03;;;0.99
76901;BMP280;65859;43.020;25.096;2024-03-23T04:29:13;99457.69;;;1.10
76901;BMP280;65859;43.020;25.096;2024-03-23T04:31:39;99456.06;;;1.31
76901;BMP280;65859;43.020;25.096;2024-03-23T04:34:05;99457.19;;;1.13
76901;BMP280;65859;43.020;25.096;2024-03-23T04:36:32;99459.22;;;1.06
76901;BMP280;65859;43.020;25.096;2024-03-23T04:38:59;99460.63;;;0.42
76901;BMP280;65859;43.020;25.096;2024-03-23T04:41:26;99457.97;;;0.37
76901;BMP280;65859;43.020;25.096;2024-03-23T04:43:52;99454.44;;;0.48
76901;BMP280;65859;43.020;25.096;2024-03-23T04:46:19;99467.72;;;0.25
76901;BMP280;65859;43.020;25.096;2024-03-23T04:48:46;99461.03;;;0.34
76901;BMP280;65859;43.020;25.096;2024-03-23T04:51:23;99456.69;;;0.18
76901;BMP280;65859;43.020;25.096;2024-03-23T04:53:51;99458.16;;;0.80
76901;BMP280;65859;43.020;25.096;2024-03-23T04:56:17;99458.00;;;0.86
76901;BMP280;65859;43.020;25.096;2024-03-23T04:58:44;99461.09;;;1.42
76901;BMP280;65859;43.020;25.096;2024-03-23T05:01:14;99464.34;;;1.97
76901;BMP280;65859;43.020;25.096;2024-03-23T05:03:40;99463.91;;;2.10
76901;BMP280;65859;43.020;25.096;2024-03-23T05:06:06;99467.97;;;2.49
76901;BMP280;65859;43.020;25.096;2024-03-23T05:08:33;99459.94;;;3.01
76901;BMP280;65859;43.020;25.096;2024-03-23T05:10:59;99465.97;;;3.53
76901;BMP280;65859;43.020;25.096;2024-03-23T05:13:25;99458.09;;;3.68
76901;BMP280;65859;43.020;25.096;2024-03-23T05:15:55;99459.38;;;3.76
76901;BMP280;65859;43.020;25.096;2024-03-23T05:18:22;99459.69;;;3.59
76901;BMP280;65859;43.020;25.096;2024-03-23T05:20:48;99461.25;;;3.60
76901;BMP280;65859;43.020;25.096;2024-03-23T05:23:14;99461.78;;;3.62
76901;BMP280;65859;43.020;25.096;2024-03-23T05:25:42;99460.69;;;3.83
76901;BMP280;65859;43.020;25.096;2024-03-23T05:28:08;99458.31;;;4.41
76901;BMP280;65859;43.020;25.096;2024-03-23T05:30:35;99463.09;;;4.39
76901;BMP280;65859;43.020;25.096;2024-03-23T05:33:01;99453.91;;;4.37
76901;BMP280;65859;43.020;25.096;2024-03-23T05:35:27;99459.16;;;4.37
76901;BMP280;65859;43.020;25.096;2024-03-23T05:37:53;99461.28;;;4.79
76901;BMP280;65859;43.020;25.096;2024-03-23T05:40:20;99462.50;;;3.88
76901;BMP280;65859;43.020;25.096;2024-03-23T05:42:46;99454.53;;;4.08
76901;BMP280;65859;43.020;25.096;2024-03-23T05:45:12;99457.59;;;4.36
76901;BMP280;65859;43.020;25.096;2024-03-23T05:47:38;99455.47;;;5.74
76901;BMP280;65859;43.020;25.096;2024-03-23T05:50:05;99451.81;;;5.12
76901;BMP280;65859;43.020;25.096;2024-03-23T05:52:31;99443.34;;;6.16
76901;BMP280;65859;43.020;25.096;2024-03-23T05:54:58;99449.13;;;5.94
76901;BMP280;65859;43.020;25.096;2024-03-23T05:57:25;99445.09;;;6.02
76901;BMP280;65859;43.020;25.096;2024-03-23T05:59:51;99447.69;;;5.83
76901;BMP280;65859;43.020;25.096;2024-03-23T06:02:18;99447.41;;;6.27
76901;BMP280;65859;43.020;25.096;2024-03-23T06:04:46;99445.44;;;6.19
76901;BMP280;65859;43.020;25.096;2024-03-23T06:07:12;99441.69;;;6.58
76901;BMP280;65859;43.020;25.096;2024-03-23T06:09:40;99438.13;;;6.68
76901;BMP280;65859;43.020;25.096;2024-03-23T06:12:07;99442.41;;;7.56
76901;BMP280;65859;43.020;25.096;2024-03-23T06:14:34;99441.16;;;8.40
76901;BMP280;65859;43.020;25.096;2024-03-23T06:17:00;99441.53;;;8.70
76901;BMP280;65859;43.020;25.096;2024-03-23T06:19:28;99431.50;;;7.72
76901;BMP280;65859;43.020;25.096;2024-03-23T06:21:54;99431.72;;;8.03
76901;BMP280;65859;43.020;25.096;2024-03-23T06:24:23;99436.78;;;8.13
76901;BMP280;65859;43.020;25.096;2024-03-23T06:26:50;99432.84;;;8.24
76901;BMP280;65859;43.020;25.096;2024-03-23T06:29:17;99424.13;;;9.08
76901;BMP280;65859;43.020;25.096;2024-03-23T06:31:44;99423.28;;;9.79
76901;BMP280;65859;43.020;25.096;2024-03-23T06:34:10;99428.41;;;10.36
76901;BMP280;65859;43.020;25.096;2024-03-23T06:36:36;99427.72;;;8.50
76901;BMP280;65859;43.020;25.096;2024-03-23T06:39:04;99426.19;;;9.51
76901;BMP280;65859;43.020;25.096;2024-03-23T06:41:31;99431.25;;;8.68
76901;BMP280;65859;43.020;25.096;2024-03-23T06:43:57;99426.69;;;9.70
76901;BMP280;65859;43.020;25.096;2024-03-23T06:46:24;99420.13;;;9.59
76901;BMP280;65859;43.020;25.096;2024-03-23T06:48:50;99418.69;;;9.53
76901;BMP280;65859;43.020;25.096;2024-03-23T06:51:16;99414.19;;;9.54
76901;BMP280;65859;43.020;25.096;2024-03-23T06:53:42;99406.16;;;9.28
76901;BMP280;65859;43.020;25.096;2024-03-23T06:56:08;99417.03;;;10.09
76901;BMP280;65859;43.020;25.096;2024-03-23T06:58:35;99418.91;;;9.91
76901;BMP280;65859;43.020;25.096;2024-03-23T07:01:02;99414.34;;;10.99
76901;BMP280;65859;43.020;25.096;2024-03-23T07:03:28;99413.38;;;11.13
76901;BMP280;65859;43.020;25.096;2024-03-23T07:05:58;99409.25;;;11.74
76901;BMP280;65859;43.020;25.096;2024-03-23T07:08:25;99406.78;;;12.23
76901;BMP280;65859;43.020;25.096;2024-03-23T07:10:51;99400.97;;;11.25
76901;BMP280;65859;43.020;25.096;2024-03-23T07:13:17;99396.44;;;10.88
76901;BMP280;65859;43.020;25.096;2024-03-23T07:15:43;99384.72;;;11.69
76901;BMP280;65859;43.020;25.096;2024-03-23T07:18:16;99395.50;;;12.05
76901;BMP280;65859;43.020;25.096;2024-03-23T07:20:51;99393.00;;;10.96
76901;BMP280;65859;43.020;25.096;2024-03-23T07:23:17;99386.28;;;11.49
76901;BMP280;65859;43.020;25.096;2024-03-23T07:25:43;99391.69;;;11.02
76901;BMP280;65859;43.020;25.096;2024-03-23T07:28:10;99380.47;;;11.55
76901;BMP280;65859;43.020;25.096;2024-03-23T07:30:36;99380.03;;;12.07
76901;BMP280;65859;43.020;25.096;2024-03-23T07:33:03;99375.72;;;12.03
76901;BMP280;65859;43.020;25.096;2024-03-23T07:35:30;99369.59;;;12.35
76901;BMP280;65859;43.020;25.096;2024-03-23T07:37:56;99368.25;;;13.27
76901;BMP280;65859;43.020;25.096;2024-03-23T07:40:22;99363.69;;;14.74
76901;BMP280;65859;43.020;25.096;2024-03-23T07:42:49;99359.56;;;15.51
76901;BMP280;65859;43.020;25.096;2024-03-23T07:45:15;99360.66;;;15.88
76901;BMP280;65859;43.020;25.096;2024-03-23T07:47:41;99350.38;;;14.94
76901;BMP280;65859;43.020;25.096;2024-03-23T07:50:08;99354.47;;;15.65
76901;BMP280;65859;43.020;25.096;2024-03-23T07:52:34;99349.06;;;15.42
76901;BMP280;65859;43.020;25.096;2024-03-23T07:55:00;99350.03;;;15.53
76901;BMP280;65859;43.020;25.096;2024-03-23T07:57:26;99357.19;;;16.87
76901;BMP280;65859;43.020;25.096;2024-03-23T07:59:53;99356.94;;;16.69
76901;BMP280;65859;43.020;25.096;2024-03-23T08:02:19;99346.66;;;17.34
76901;BMP280;65859;43.020;25.096;2024-03-23T08:04:46;99343.56;;;16.46
76901;BMP280;65859;43.020;25.096;2024-03-23T08:07:13;99344.31;;;17.33
76901;BMP280;65859;43.020;25.096;2024-03-23T08:09:39;99344.75;;;18.85
76901;BMP280;65859;43.020;25.096;2024-03-23T08:12:05;99358.63;;;22.39
76901;BMP280;65859;43.020;25.096;2024-03-23T08:14:31;99361.84;;;23.41
76901;BMP280;65859;43.020;25.096;2024-03-23T08:16:58;99366.22;;;23.82
76901;BMP280;65859;43.020;25.096;2024-03-23T08:19:24;99359.06;;;23.95
76901;BMP280;65859;43.020;25.096;2024-03-23T08:21:50;99360.59;;;25.24
76901;BMP280;65859;43.020;25.096;2024-03-23T08:24:17;99361.59;;;25.91
76901;BMP280;65859;43.020;25.096;2024-03-23T08:26:46;99363.13;;;25.47
76901;BMP280;65859;43.020;25.096;2024-03-23T08:29:12;99357.16;;;22.65
76901;BMP280;65859;43.020;25.096;2024-03-23T08:31:38;99351.28;;;24.56
76901;BMP280;65859;43.020;25.096;2024-03-23T08:34:05;99351.25;;;22.39
76901;BMP280;65859;43.020;25.096;2024-03-23T08:36:32;99348.84;;;22.79
76901;BMP280;65859;43.020;25.096;2024-03-23T08:38:59;99357.19;;;25.04
76901;BMP280;65859;43.020;25.096;2024-03-23T08:41:25;99358.81;;;26.75
76901;BMP280;65859;43.020;25.096;2024-03-23T08:43:51;99355.75;;;27.58
76901;BMP280;65859;43.020;25.096;2024-03-23T08:46:18;99353.38;;;26.75
76901;BMP280;65859;43.020;25.096;2024-03-23T08:48:46;99354.34;;;26.43
76901;BMP280;65859;43.020;25.096;2024-03-23T08:51:14;99347.78;;;25.57
76901;BMP280;65859;43.020;25.096;2024-03-23T08:53:41;99351.84;;;26.74
76901;BMP280;65859;43.020;25.096;2024-03-23T08:56:08;99348.13;;;25.27
76901;BMP280;65859;43.020;25.096;2024-03-23T08:58:36;99339.22;;;28.27
76901;BMP280;65859;43.020;25.096;2024-03-23T09:01:11;99342.97;;;26.06
76901;BMP280;65859;43.020;25.096;2024-03-23T09:03:37;99340.53;;;26.75
76901;BMP280;65859;43.020;25.096;2024-03-23T09:06:11;99334.50;;;27.53
76901;BMP280;65859;43.020;25.096;2024-03-23T09:08:38;99327.09;;;27.41
76901;BMP280;65859;43.020;25.096;2024-03-23T09:11:07;99323.75;;;27.02
76901;BMP280;65859;43.020;25.096;2024-03-23T09:13:37;99316.00;;;26.88
76901;BMP280;65859;43.020;25.096;2024-03-23T09:16:05;99309.41;;;27.23
76901;BMP280;65859;43.020;25.096;2024-03-23T09:18:35;99305.44;;;28.03
76901;BMP280;65859;43.020;25.096;2024-03-23T09:21:03;99303.69;;;28.58
76901;BMP280;65859;43.020;25.096;2024-03-23T09:23:29;99295.88;;;27.76
76901;BMP280;65859;43.020;25.096;2024-03-23T09:25:56;99301.25;;;29.79
76901;BMP280;65859;43.020;25.096;2024-03-23T09:28:22;99289.44;;;28.63
76901;BMP280;65859;43.020;25.096;2024-03-23T09:30:49;99292.81;;;29.13
76901;BMP280;65859;43.020;25.096;2024-03-23T09:33:15;99287.41;;;30.96
76901;BMP280;65859;43.020;25.096;2024-03-23T09:35:43;99288.19;;;30.49
76901;BMP280;65859;43.020;25.096;2024-03-23T09:38:10;99277.34;;;32.71
76901;BMP280;65859;43.020;25.096;2024-03-23T09:40:41;99282.44;;;30.37
76901;BMP280;65859;43.020;25.096;2024-03-23T09:43:08;99283.50;;;32.05
76901;BMP280;65859;43.020;25.096;2024-03-23T09:45:39;99285.09;;;31.77
76901;BMP280;65859;43.020;25.096;2024-03-23T09:48:08;99271.34;;;31.33
76901;BMP280;65859;43.020;25.096;2024-03-23T09:50:40;99277.16;;;30.34
76901;BMP280;65859;43.020;25.096;2024-03-23T09:53:07;99268.91;;;32.34
76901;BMP280;65859;43.020;25.096;2024-03-23T09:55:35;99266.69;;;31.83
76901;BMP280;65859;43.020;25.096;2024-03-23T09:58:02;99268.00;;;33.09
76901;BMP280;65859;43.020;25.096;2024-03-23T10:00:28;99255.81;;;32.44
76901;BMP280;65859;43.020;25.096;2024-03-23T10:02:59;99253.09;;;32.09
76901;BMP280;65859;43.020;25.096;2024-03-23T10:05:28;99254.84;;;32.06
76901;BMP280;65859;43.020;25.096;2024-03-23T10:07:55;99249.34;;;32.47
76901;BMP280;65859;43.020;25.096;2024-03-23T10:10:21;99243.72;;;31.07
76901;BMP280;65859;43.020;25.096;2024-03-23T10:12:50;99249.19;;;32.56
76901;BMP280;65859;43.020;25.096;2024-03-23T10:15:20;99243.56;;;33.85
76901;BMP280;65859;43.020;25.096;2024-03-23T10:17:47;99240.28;;;33.13
76901;BMP280;65859;43.020;25.096;2024-03-23T10:20:18;99238.53;;;34.43
76901;BMP280;65859;43.020;25.096;2024-03-23T10:22:46;99231.34;;;35.23
76901;BMP280;65859;43.020;25.096;2024-03-23T10:25:13;99231.22;;;30.91
76901;BMP280;65859;43.020;25.096;2024-03-23T10:27:40;99233.31;;;31.70
76901;BMP280;65859;43.020;25.096;2024-03-23T10:30:10;99226.63;;;31.12
76901;BMP280;65859;43.020;25.096;2024-03-23T10:32:37;99219.31;;;33.95
76901;BMP280;65859;43.020;25.096;2024-03-23T10:35:22;99214.41;;;32.53
76901;BMP280;65859;43.020;25.096;2024-03-23T10:37:49;99213.34;;;32.24
76901;BMP280;65859;43.020;25.096;2024-03-23T10:40:16;99202.56;;;30.77
76901;BMP280;65859;43.020;25.096;2024-03-23T10:42:42;99205.53;;;33.89
76901;BMP280;65859;43.020;25.096;2024-03-23T10:45:10;99203.25;;;34.86
76901;BMP280;65859;43.020;25.096;2024-03-23T10:47:38;99192.63;;;33.01
76901;BMP280;65859;43.020;25.096;2024-03-23T10:50:04;99196.31;;;29.91
76901;BMP280;65859;43.020;25.096;2024-03-23T10:52:34;99186.19;;;29.73
76901;BMP280;65859;43.020;25.096;2024-03-23T10:55:02;99172.22;;;29.71
76901;BMP280;65859;43.020;25.096;2024-03-23T11:00:03;99172.72;;;28.63
76901;BMP280;65859;43.020;25.096;2024-03-23T11:02:30;99164.75;;;28.29
76901;BMP280;65859;43.020;25.096;2024-03-23T11:04:56;99160.97;;;27.77
76901;BMP280;65859;43.020;25.096;2024-03-23T11:09:54;99141.00;;;30.49
76901;BMP280;65859;43.020;25.096;2024-03-23T11:15:06;99129.00;;;34.99
76901;BMP280;65859;43.020;25.096;2024-03-23T11:17:38;99125.16;;;35.30
76901;BMP280;65859;43.020;25.096;2024-03-23T11:20:06;99115.53;;;32.33
76901;BMP280;65859;43.020;25.096;2024-03-23T11:25:14;99097.81;;;33.87
76901;BMP280;65859;43.020;25.096;2024-03-23T11:27:41;99088.88;;;34.76
76901;BMP280;65859;43.020;25.096;2024-03-23T11:32:42;99070.25;;;32.28
76901;BMP280;65859;43.020;25.096;2024-03-23T11:35:08;99052.50;;;33.99
76901;BMP280;65859;43.020;25.096;2024-03-23T11:37:36;99033.94;;;34.83
76901;BMP280;65859;43.020;25.096;2024-03-23T11:40:21;99028.94;;;33.17
76901;BMP280;65859;43.020;25.096;2024-03-23T11:42:54;99022.66;;;34.87
76901;BMP280;65859;43.020;25.096;2024-03-23T11:45:21;99007.19;;;35.30
76901;BMP280;65859;43.020;25.096;2024-03-23T11:47:48;99003.88;;;34.74
76901;BMP280;65859;43.020;25.096;2024-03-23T11:50:23;98995.78;;;31.34
76901;BMP280;65859;43.020;25.096;2024-03-23T11:52:49;98996.41;;;25.02
76901;BMP280;65859;43.020;25.096;2024-03-23T11:55:17;98995.78;;;24.08
76901;BMP280;65859;43.020;25.096;2024-03-23T11:57:43;98981.34;;;23.46
76901;BMP280;65859;43.020;25.096;2024-03-23T12:00:22;98974.47;;;22.66
76901;BMP280;65859;43.020;25.096;2024-03-23T12:02:49;98962.94;;;21.07
76901;BMP280;65859;43.020;25.096;2024-03-23T12:05:16;98960.75;;;21.29
76901;BMP280;65859;43.020;25.096;2024-03-23T12:07:42;98953.22;;;20.83
76901;BMP280;65859;43.020;25.096;2024-03-23T12:10:09;98949.72;;;20.86
76901;BMP280;65859;43.020;25.096;2024-03-23T12:12:35;98946.34;;;20.74
76901;BMP280;65859;43.020;25.096;2024-03-23T12:15:05;98936.44;;;21.02
76901;BMP280;65859;43.020;25.096;2024-03-23T12:17:33;98936.56;;;20.88
76901;BMP280;65859;43.020;25.096;2024-03-23T12:20:02;98929.06;;;20.72
76901;BMP280;65859;43.020;25.096;2024-03-23T12:22:28;98921.47;;;21.24
76901;BMP280;65859;43.020;25.096;2024-03-23T12:24:58;98929.59;;;20.11
76901;BMP280;65859;43.020;25.096;2024-03-23T12:27:24;98910.34;;;20.54
76901;BMP280;65859;43.020;25.096;2024-03-23T12:29:51;98913.00;;;20.58
76901;BMP280;65859;43.020;25.096;2024-03-23T12:32:17;98900.53;;;20.33
76901;BMP280;65859;43.020;25.096;2024-03-23T12:34:44;98898.72;;;20.64
76901;BMP280;65859;43.020;25.096;2024-03-23T12:37:10;98889.03;;;20.29
76901;BMP280;65859;43.020;25.096;2024-03-23T12:39:38;98888.19;;;20.36
76901;BMP280;65859;43.020;25.096;2024-03-23T12:42:04;98882.09;;;20.69
76901;BMP280;65859;43.020;25.096;2024-03-23T12:44:31;98887.63;;;20.18
76901;BMP280;65859;43.020;25.096;2024-03-23T12:46:57;98875.63;;;20.19
76901;BMP280;65859;43.020;25.096;2024-03-23T12:49:24;98884.72;;;19.91
76901;BMP280;65859;43.020;25.096;2024-03-23T12:51:55;98871.72;;;19.82
76901;BMP280;65859;43.020;25.096;2024-03-23T12:54:22;98872.16;;;20.22
76901;BMP280;65859;43.020;25.096;2024-03-23T12:56:48;98870.38;;;19.56
76901;BMP280;65859;43.020;25.096;2024-03-23T12:59:15;98865.50;;;19.89
76901;BMP280;65859;43.020;25.096;2024-03-23T13:01:42;98865.69;;;19.64
76901;BMP280;65859;43.020;25.096;2024-03-23T13:04:09;98867.41;;;19.43
76901;BMP280;65859;43.020;25.096;2024-03-23T13:06:36;98850.78;;;20.04
76901;BMP280;65859;43.020;25.096;2024-03-23T13:09:02;98848.84;;;20.04
76901;BMP280;65859;43.020;25.096;2024-03-23T13:11:29;98846.09;;;19.63
76901;BMP280;65859;43.020;25.096;2024-03-23T13:13:56;98842.75;;;19.93
76901;BMP280;65859;43.020;25.096;2024-03-23T13:16:22;98845.59;;;19.79
76901;BMP280;65859;43.020;25.096;2024-03-23T13:18:49;98837.03;;;19.39
76901;BMP280;65859;43.020;25.096;2024-03-23T13:21:15;98835.00;;;19.50
76901;BMP280;65859;43.020;25.096;2024-03-23T13:23:47;98821.31;;;19.34
76901;BMP280;65859;43.020;25.096;2024-03-23T13:26:14;98824.66;;;19.45
76901;BMP280;65859;43.020;25.096;2024-03-23T13:28:40;98818.19;;;19.39
76901;BMP280;65859;43.020;25.096;2024-03-23T13:31:07;98822.72;;;19.49
76901;BMP280;65859;43.020;25.096;2024-03-23T13:33:34;98816.63;;;19.42
76901;BMP280;65859;43.020;25.096;2024-03-23T13:36:02;98814.38;;;19.33
76901;BMP280;65859;43.020;25.096;2024-03-23T13:38:29;98813.47;;;19.50
76901;BMP280;65859;43.020;25.096;2024-03-23T13:40:56;98811.19;;;19.49
76901;BMP280;65859;43.020;25.096;2024-03-23T13:43:23;98804.88;;;19.73
76901;BMP280;65859;43.020;25.096;2024-03-23T13:45:53;98802.63;;;19.65
76901;BMP280;65859;43.020;25.096;2024-03-23T13:48:20;98797.16;;;19.72
76901;BMP280;65859;43.020;25.096;2024-03-23T13:50:47;98792.69;;;19.58
76901;BMP280;65859;43.020;25.096;2024-03-23T13:53:14;98792.56;;;19.69
76901;BMP280;65859;43.020;25.096;2024-03-23T13:55:48;98789.13;;;19.68
76901;BMP280;65859;43.020;25.096;2024-03-23T13:58:15;98788.53;;;19.46
76901;BMP280;65859;43.020;25.096;2024-03-23T14:00:42;98784.16;;;19.63
76901;BMP280;65859;43.020;25.096;2024-03-23T14:03:11;98781.50;;;19.60
76901;BMP280;65859;43.020;25.096;2024-03-23T14:05:38;98786.25;;;19.41
76901;BMP280;65859;43.020;25.096;2024-03-23T14:08:09;98783.66;;;19.27
76901;BMP280;65859;43.020;25.096;2024-03-23T14:10:35;98778.34;;;19.20
76901;BMP280;65859;43.020;25.096;2024-03-23T14:13:05;98768.66;;;19.26
76901;BMP280;65859;43.020;25.096;2024-03-23T14:15:31;98762.88;;;19.31
76901;BMP280;65859;43.020;25.096;2024-03-23T14:17:58;98752.09;;;19.31
76901;BMP280;65859;43.020;25.096;2024-03-23T14:20:24;98756.69;;;19.38
76901;BMP280;65859;43.020;25.096;2024-03-23T14:22:52;98757.50;;;19.31
76901;BMP280;65859;43.020;25.096;2024-03-23T14:25:18;98753.31;;;19.23
76901;BMP280;65859;43.020;25.096;2024-03-23T14:27:46;98750.13;;;19.39
76901;BMP280;65859;43.020;25.096;2024-03-23T14:30:13;98751.16;;;19.56
76901;BMP280;65859;43.020;25.096;2024-03-23T14:32:40;98755.22;;;19.30
76901;BMP280;65859;43.020;25.096;2024-03-23T14:35:07;98750.72;;;19.12
76901;BMP280;65859;43.020;25.096;2024-03-23T14:37:37;98753.41;;;19.12
76901;BMP280;65859;43.020;25.096;2024-03-23T14:40:04;98748.75;;;19.20
76901;BMP280;65859;43.020;25.096;2024-03-23T14:42:30;98738.31;;;19.29
76901;BMP280;65859;43.020;25.096;2024-03-23T14:44:59;98742.63;;;19.16
76901;BMP280;65859;43.020;25.096;2024-03-23T14:47:26;98739.16;;;19.15
76901;BMP280;65859;43.020;25.096;2024-03-23T14:49:52;98736.94;;;19.07
76901;BMP280;65859;43.020;25.096;2024-03-23T14:52:19;98737.63;;;19.14
76901;BMP280;65859;43.020;25.096;2024-03-23T14:54:45;98718.41;;;19.16
76901;BMP280;65859;43.020;25.096;2024-03-23T14:57:12;98722.69;;;19.06
76901;BMP280;65859;43.020;25.096;2024-03-23T14:59:39;98731.91;;;19.12
76901;BMP280;65859;43.020;25.096;2024-03-23T15:02:07;98718.41;;;19.16
76901;BMP280;65859;43.020;25.096;2024-03-23T15:04:33;98717.78;;;18.98
76901;BMP280;65859;43.020;25.096;2024-03-23T15:07:00;98716.19;;;19.04
76901;BMP280;65859;43.020;25.096;2024-03-23T15:09:26;98720.03;;;19.03